<?xml version="1.0" encoding="UTF-8" standalone="no" ?>
<gpx xmlns="http://www.topografix.com/GPX/1/1" xmlns:xsi="http://www.w3.org/2001/XMLSchema-instance" xsi:schemaLocation="http://www.topografix.com/GPX/1/1 http://www.topografix.com/GPX/1/1/gpx.xsd" version="1.1" creator="VisuGPX - https://www.visugpx.com">
  <metadata>
    <name>ST Paul de Vézelin 42</name>
  </metadata>
  <trk>
    <name><![CDATA[Randonnée du 06/08/2022 à 15:22]]></name>
    <trkseg>
      <trkpt lat="45.88512" lon="4.0849">
        <ele>427</ele>
        <time>2022-08-06T15:26:16+02:00</time>
      </trkpt>
      <trkpt lat="45.88819" lon="4.08405">
        <ele>436</ele>
        <time>2022-08-06T15:33:46+02:00</time>
      </trkpt>
      <trkpt lat="45.8905" lon="4.08296">
        <ele>439</ele>
        <time>2022-08-06T15:38:55+02:00</time>
      </trkpt>
      <trkpt lat="45.89353" lon="4.08176">
        <ele>447</ele>
        <time>2022-08-06T15:46:17+02:00</time>
      </trkpt>
      <trkpt lat="45.89638" lon="4.07934">
        <ele>457</ele>
        <time>2022-08-06T15:54:19+02:00</time>
      </trkpt>
      <trkpt lat="45.89861" lon="4.07977">
        <ele>457</ele>
        <time>2022-08-06T15:58:36+02:00</time>
      </trkpt>
      <trkpt lat="45.89916" lon="4.08049">
        <ele>453</ele>
        <time>2022-08-06T16:00:01+02:00</time>
      </trkpt>
      <trkpt lat="45.90067" lon="4.08007">
        <ele>457</ele>
        <time>2022-08-06T16:03:39+02:00</time>
      </trkpt>
      <trkpt lat="45.90205" lon="4.07995">
        <ele>455</ele>
        <time>2022-08-06T16:06:18+02:00</time>
      </trkpt>
      <trkpt lat="45.90483" lon="4.08272">
        <ele>413</ele>
        <time>2022-08-06T16:12:45+02:00</time>
      </trkpt>
      <trkpt lat="45.90562" lon="4.08278">
        <ele>400</ele>
        <time>2022-08-06T16:14:16+02:00</time>
      </trkpt>
      <trkpt lat="45.90588" lon="4.07971">
        <ele>405</ele>
        <time>2022-08-06T16:19:14+02:00</time>
      </trkpt>
      <trkpt lat="45.90638" lon="4.08158">
        <ele>383</ele>
        <time>2022-08-06T16:21:54+02:00</time>
      </trkpt>
      <trkpt lat="45.90806" lon="4.08278">
        <ele>335</ele>
        <time>2022-08-06T16:25:29+02:00</time>
      </trkpt>
      <trkpt lat="45.90953" lon="4.07958">
        <ele>347</ele>
        <time>2022-08-06T16:32:38+02:00</time>
      </trkpt>
      <trkpt lat="45.91029" lon="4.07795">
        <ele>331</ele>
        <time>2022-08-06T16:35:15+02:00</time>
      </trkpt>
      <trkpt lat="45.91004" lon="4.07686">
        <ele>344</ele>
        <time>2022-08-06T16:39:00+02:00</time>
      </trkpt>
      <trkpt lat="45.91125" lon="4.07547">
        <ele>327</ele>
        <time>2022-08-06T16:41:58+02:00</time>
      </trkpt>
      <trkpt lat="45.91134" lon="4.07239">
        <ele>358</ele>
        <time>2022-08-06T16:51:22+02:00</time>
      </trkpt>
      <trkpt lat="45.9113" lon="4.06932">
        <ele>354</ele>
        <time>2022-08-06T16:55:27+02:00</time>
      </trkpt>
      <trkpt lat="45.91176" lon="4.0666">
        <ele>340</ele>
        <time>2022-08-06T16:59:10+02:00</time>
      </trkpt>
      <trkpt lat="45.91142" lon="4.06491">
        <ele>332</ele>
        <time>2022-08-06T17:01:30+02:00</time>
      </trkpt>
      <trkpt lat="45.91083" lon="4.06424">
        <ele>326</ele>
        <time>2022-08-06T17:02:56+02:00</time>
      </trkpt>
      <trkpt lat="45.90987" lon="4.06382">
        <ele>324</ele>
        <time>2022-08-06T17:04:52+02:00</time>
      </trkpt>
      <trkpt lat="45.91016" lon="4.06304">
        <ele>323</ele>
        <time>2022-08-06T17:06:03+02:00</time>
      </trkpt>
      <trkpt lat="45.90802" lon="4.06255">
        <ele>347</ele>
        <time>2022-08-06T17:14:18+02:00</time>
      </trkpt>
      <trkpt lat="45.90735" lon="4.06086">
        <ele>367</ele>
        <time>2022-08-06T17:20:19+02:00</time>
      </trkpt>
      <trkpt lat="45.90668" lon="4.06334">
        <ele>382</ele>
        <time>2022-08-06T17:26:25+02:00</time>
      </trkpt>
      <trkpt lat="45.90567" lon="4.06274">
        <ele>400</ele>
        <time>2022-08-06T17:31:35+02:00</time>
      </trkpt>
      <trkpt lat="45.90382" lon="4.06304">
        <ele>412</ele>
        <time>2022-08-06T17:37:11+02:00</time>
      </trkpt>
      <trkpt lat="45.90294" lon="4.06129">
        <ele>438</ele>
        <time>2022-08-06T17:44:31+02:00</time>
      </trkpt>
      <trkpt lat="45.90168" lon="4.06135">
        <ele>444</ele>
        <time>2022-08-06T17:47:57+02:00</time>
      </trkpt>
      <trkpt lat="45.90025" lon="4.06068">
        <ele>458</ele>
        <time>2022-08-06T17:53:13+02:00</time>
      </trkpt>
      <trkpt lat="45.89743" lon="4.06002">
        <ele>468</ele>
        <time>2022-08-06T18:00:22+02:00</time>
      </trkpt>
      <trkpt lat="45.89689" lon="4.06352">
        <ele>457</ele>
        <time>2022-08-06T18:05:08+02:00</time>
      </trkpt>
      <trkpt lat="45.89525" lon="4.06581">
        <ele>453</ele>
        <time>2022-08-06T18:09:30+02:00</time>
      </trkpt>
      <trkpt lat="45.89277" lon="4.06992">
        <ele>448</ele>
        <time>2022-08-06T18:16:43+02:00</time>
      </trkpt>
      <trkpt lat="45.89202" lon="4.07565">
        <ele>433</ele>
        <time>2022-08-06T18:24:28+02:00</time>
      </trkpt>
      <trkpt lat="45.88907" lon="4.0727">
        <ele>424</ele>
        <time>2022-08-06T18:31:19+02:00</time>
      </trkpt>
      <trkpt lat="45.88622" lon="4.07167">
        <ele>408</ele>
        <time>2022-08-06T18:36:56+02:00</time>
      </trkpt>
      <trkpt lat="45.88294" lon="4.07143">
        <ele>421</ele>
        <time>2022-08-06T18:45:26+02:00</time>
      </trkpt>
      <trkpt lat="45.88176" lon="4.07064">
        <ele>423</ele>
        <time>2022-08-06T18:48:15+02:00</time>
      </trkpt>
      <trkpt lat="45.88021" lon="4.07143">
        <ele>409</ele>
        <time>2022-08-06T18:51:24+02:00</time>
      </trkpt>
      <trkpt lat="45.88202" lon="4.07583">
        <ele>408</ele>
        <time>2022-08-06T18:58:12+02:00</time>
      </trkpt>
      <trkpt lat="45.88349" lon="4.07771">
        <ele>392</ele>
        <time>2022-08-06T19:01:57+02:00</time>
      </trkpt>
      <trkpt lat="45.88407" lon="4.08006">
        <ele>398</ele>
        <time>2022-08-06T19:06:18+02:00</time>
      </trkpt>
      <trkpt lat="45.88319" lon="4.0806">
        <ele>395</ele>
        <time>2022-08-06T19:08:08+02:00</time>
      </trkpt>
      <trkpt lat="45.88403" lon="4.08078">
        <ele>406</ele>
        <time>2022-08-06T19:11:39+02:00</time>
      </trkpt>
      <trkpt lat="45.88433" lon="4.0829">
        <ele>422</ele>
        <time>2022-08-06T19:17:15+02:00</time>
      </trkpt>
      <trkpt lat="45.88466" lon="4.08537">
        <ele>424</ele>
        <time>2022-08-06T19:20:57+02:00</time>
      </trkpt>
    </trkseg>
  </trk>
</gpx>